Time;durP1;ratioP1;P1;durP2;ratioP2;P2;SDS_P1;SDS_P2;PMS_P1;PMS_P2;Temp;Humidity;BMP_temperature;BMP_pressure;BME280_temperature;BME280_humidity;BME280_pressure;Samples;Min_cycle;Max_cycle;Signal;HPM_P1;HPM_P2
2023/05/11 00:02:25;;;;;;;1.27;0.90;;;;;;;;;;4994811;28;21069;-63
2023/05/11 00:04:51;;;;;;;0.90;0.90;;;;;;;;;;4995056;28;20426;-64
2023/05/11 00:07:17;;;;;;;1.13;1.03;;;;;;;;;;4994869;28;20405;-64
2023/05/11 00:09:43;;;;;;;0.80;0.80;;;;;;;;;;4994854;28;20923;-64
2023/05/11 00:12:09;;;;;;;2.93;1.20;;;;;;;;;;4995197;28;20419;-64
2023/05/11 00:14:35;;;;;;;0.80;0.80;;;;;;;;;;4994766;28;20474;-64
2023/05/11 00:17:01;;;;;;;1.07;0.90;;;;;;;;;;4995096;28;20803;-64
2023/05/11 00:19:30;;;;;;;0.70;0.70;;;;;;;;;;4995005;28;20424;-64
2023/05/11 00:21:56;;;;;;;2.67;0.80;;;;;;;;;;4994655;28;20856;-64
2023/05/11 00:24:22;;;;;;;2.27;1.00;;;;;;;;;;4994593;28;20412;-64
2023/05/11 00:26:48;;;;;;;1.47;1.10;;;;;;;;;;4994560;28;20420;-64
2023/05/11 00:29:14;;;;;;;0.70;0.70;;;;;;;;;;4994653;28;20885;-64
2023/05/11 00:31:46;;;;;;;0.83;0.83;;;;;;;;;;4994545;28;20449;-64
2023/05/11 00:34:12;;;;;;;5.03;1.30;;;;;;;;;;4994450;28;20441;-64
2023/05/11 00:36:38;;;;;;;3.07;0.90;;;;;;;;;;4994510;28;20893;-64
2023/05/11 00:39:04;;;;;;;2.30;1.10;;;;;;;;;;4994574;28;20878;-64
2023/05/11 00:41:33;;;;;;;0.80;0.80;;;;;;;;;;4994060;28;20464;-64
2023/05/11 00:43:59;;;;;;;1.00;0.83;;;;;;;;;;4994492;28;20445;-64
2023/05/11 00:46:25;;;;;;;0.90;0.87;;;;;;;;;;4994577;28;20439;-64
2023/05/11 00:48:53;;;;;;;1.10;1.10;;;;;;;;;;4994480;28;20417;-64
2023/05/11 00:51:20;;;;;;;1.10;1.00;;;;;;;;;;4994339;28;20421;-64
2023/05/11 00:53:49;;;;;;;3.47;0.93;;;;;;;;;;4993890;28;20418;-64
2023/05/11 00:56:15;;;;;;;1.00;0.90;;;;;;;;;;4993986;28;20450;-64
2023/05/11 00:58:41;;;;;;;1.10;1.00;;;;;;;;;;4993947;28;20414;-64
2023/05/11 01:01:07;;;;;;;1.97;1.17;;;;;;;;;;4993894;28;20410;-63
2023/05/11 01:03:35;;;;;;;1.27;1.27;;;;;;;;;;4993894;28;20421;-64
2023/05/11 01:06:07;;;;;;;1.00;1.00;;;;;;;;;;4994127;28;20541;-64
2023/05/11 01:08:46;;;;;;;1.03;0.93;;;;;;;;;;4994103;28;20964;-64
2023/05/11 01:11:15;;;;;;;1.23;1.10;;;;;;;;;;4993944;28;20406;-63
2023/05/11 01:14:02;;;;;;;4.93;1.20;;;;;;;;;;4993802;28;20849;-63
2023/05/11 01:16:32;;;;;;;2.93;1.10;;;;;;;;;;4993804;28;20417;-63
2023/05/11 01:19:03;;;;;;;4.30;1.20;;;;;;;;;;4993781;28;20524;-63
2023/05/11 01:21:32;;;;;;;5.77;1.23;;;;;;;;;;4993482;28;20608;-63
2023/05/11 01:23:58;;;;;;;1.60;0.87;;;;;;;;;;4993644;28;20445;-64
2023/05/11 01:26:36;;;;;;;2.10;0.97;;;;;;;;;;4993623;28;20889;-64
2023/05/11 01:29:20;;;;;;;1.37;1.27;;;;;;;;;;4992249;28;20426;-64
2023/05/11 01:31:49;;;;;;;1.40;1.00;;;;;;;;;;4993675;28;20989;-64
2023/05/11 01:34:17;;;;;;;1.97;1.07;;;;;;;;;;4993571;28;20445;-64
2023/05/11 01:36:54;;;;;;;1.17;1.17;;;;;;;;;;4993217;28;20420;-64
2023/05/11 01:39:34;;;;;;;1.60;1.37;;;;;;;;;;4993388;28;20413;-64
2023/05/11 01:42:03;;;;;;;1.33;1.27;;;;;;;;;;4993483;28;20874;-64
2023/05/11 01:44:33;;;;;;;0.90;0.90;;;;;;;;;;4993246;28;20414;-64
2023/05/11 01:47:00;;;;;;;6.03;1.30;;;;;;;;;;4993381;28;20432;-64
2023/05/11 01:49:29;;;;;;;1.23;1.13;;;;;;;;;;4992961;28;20414;-64
2023/05/11 01:51:56;;;;;;;2.17;1.13;;;;;;;;;;4991831;28;20453;-64
2023/05/11 01:54:26;;;;;;;4.50;1.40;;;;;;;;;;4991859;28;20969;-64
2023/05/11 01:56:55;;;;;;;1.13;1.13;;;;;;;;;;4992663;28;20504;-64
2023/05/11 01:59:21;;;;;;;1.43;1.43;;;;;;;;;;4992851;28;20420;-64
2023/05/11 02:01:48;;;;;;;1.40;1.30;;;;;;;;;;4992521;28;20465;-64
2023/05/11 02:04:14;;;;;;;7.03;1.70;;;;;;;;;;4992470;28;20416;-64
2023/05/11 02:06:42;;;;;;;3.80;1.60;;;;;;;;;;4992208;28;20410;-63
2023/05/11 02:09:09;;;;;;;3.10;1.40;;;;;;;;;;4992311;28;20410;-63
2023/05/11 02:11:36;;;;;;;1.80;1.70;;;;;;;;;;4992843;28;20436;-64
2023/05/11 02:14:03;;;;;;;4.83;1.50;;;;;;;;;;4992520;28;20433;-64
2023/05/11 02:16:31;;;;;;;1.47;1.37;;;;;;;;;;4992680;28;20422;-63
2023/05/11 02:18:58;;;;;;;1.60;1.50;;;;;;;;;;4992954;28;20939;-64
2023/05/11 02:21:25;;;;;;;1.73;1.60;;;;;;;;;;4992828;28;20500;-63
2023/05/11 02:23:54;;;;;;;2.93;1.53;;;;;;;;;;4992637;28;20491;-64
2023/05/11 02:26:22;;;;;;;1.20;1.20;;;;;;;;;;4992794;28;20464;-63
2023/05/11 02:28:51;;;;;;;1.47;1.40;;;;;;;;;;4992445;28;20449;-64
2023/05/11 02:31:23;;;;;;;1.77;1.67;;;;;;;;;;4992930;28;20524;-63
2023/05/11 02:33:50;;;;;;;1.90;1.70;;;;;;;;;;4992816;28;20412;-64
2023/05/11 02:36:21;;;;;;;1.50;1.50;;;;;;;;;;4992689;28;20497;-63
2023/05/11 02:38:47;;;;;;;1.90;1.70;;;;;;;;;;4992321;28;20473;-63
2023/05/11 02:41:25;;;;;;;15.33;13.67;;;;;;;;;;4992442;28;20452;-64
2023/05/11 02:43:51;;;;;;;1.70;1.70;;;;;;;;;;4992284;28;20417;-64
2023/05/11 02:46:19;;;;;;;1.17;1.17;;;;;;;;;;4992585;28;20501;-64
2023/05/11 02:48:53;;;;;;;1.30;1.20;;;;;;;;;;4992791;28;20778;-64
2023/05/11 02:51:21;;;;;;;4.20;1.53;;;;;;;;;;4992690;28;20418;-64
2023/05/11 02:53:48;;;;;;;1.80;1.70;;;;;;;;;;4992587;28;20413;-63
2023/05/11 02:56:14;;;;;;;3.30;1.47;;;;;;;;;;4992692;28;20783;-64
2023/05/11 02:58:40;;;;;;;2.03;1.43;;;;;;;;;;4992399;28;20452;-64
2023/05/11 03:01:09;;;;;;;2.67;1.50;;;;;;;;;;4992330;28;20420;-64
2023/05/11 03:03:35;;;;;;;1.70;1.60;;;;;;;;;;4992555;28;20472;-64
2023/05/11 03:06:01;;;;;;;3.57;1.80;;;;;;;;;;4992187;28;20432;-64
2023/05/11 03:08:27;;;;;;;1.13;1.13;;;;;;;;;;4991739;28;20424;-64
2023/05/11 03:10:53;;;;;;;1.50;1.40;;;;;;;;;;4992028;28;20911;-64
2023/05/11 03:13:21;;;;;;;1.30;1.20;;;;;;;;;;4992410;28;20445;-64
2023/05/11 03:15:47;;;;;;;3.30;1.20;;;;;;;;;;4992166;28;20418;-64
2023/05/11 03:18:13;;;;;;;2.00;1.87;;;;;;;;;;4992468;28;20907;-64
2023/05/11 03:20:43;;;;;;;1.33;1.23;;;;;;;;;;4993186;28;20532;-64
2023/05/11 03:23:10;;;;;;;1.53;1.40;;;;;;;;;;4995768;28;20501;-64
2023/05/11 03:25:38;;;;;;;2.23;1.20;;;;;;;;;;4995893;28;20441;-64
2023/05/11 03:28:05;;;;;;;1.60;1.50;;;;;;;;;;4995780;28;20422;-64
2023/05/11 03:30:31;;;;;;;1.47;1.40;;;;;;;;;;4995942;28;20455;-64
2023/05/11 03:32:57;;;;;;;1.60;1.30;;;;;;;;;;4995566;28;20420;-63
2023/05/11 03:35:26;;;;;;;2.33;1.57;;;;;;;;;;4995873;28;20413;-64
2023/05/11 03:37:52;;;;;;;1.97;1.87;;;;;;;;;;4995607;28;20444;-64
2023/05/11 03:40:19;;;;;;;3.50;1.20;;;;;;;;;;4995662;28;20418;-63
2023/05/11 03:42:45;;;;;;;2.97;1.30;;;;;;;;;;4995256;28;20546;-63
2023/05/11 03:45:16;;;;;;;2.87;1.50;;;;;;;;;;4995492;28;20493;-64
2023/05/11 03:47:42;;;;;;;3.20;3.00;;;;;;;;;;4995093;28;20410;-64
2023/05/11 03:50:08;;;;;;;1.73;1.63;;;;;;;;;;4995304;28;20437;-64
2023/05/11 03:52:35;;;;;;;1.73;1.40;;;;;;;;;;4995377;28;20416;-64
2023/05/11 03:55:03;;;;;;;1.30;1.30;;;;;;;;;;4995223;28;20508;-64
2023/05/11 03:57:31;;;;;;;6.50;1.60;;;;;;;;;;4995285;28;20422;-64
2023/05/11 03:59:57;;;;;;;1.83;1.63;;;;;;;;;;4995048;28;20418;-63
2023/05/11 04:02:23;;;;;;;1.37;1.37;;;;;;;;;;4994895;28;20478;-63
2023/05/11 04:04:51;;;;;;;3.47;2.50;;;;;;;;;;4993865;28;20520;-64
2023/05/11 04:07:17;;;;;;;4.37;4.07;;;;;;;;;;4995269;28;20425;-64
2023/05/11 04:09:43;;;;;;;35.73;25.13;;;;;;;;;;4994713;28;20472;-64
2023/05/11 04:12:09;;;;;;;17.20;10.10;;;;;;;;;;4995084;28;20928;-64
2023/05/11 04:14:35;;;;;;;74.03;38.67;;;;;;;;;;4994705;28;20468;-64
2023/05/11 04:17:01;;;;;;;101.57;57.43;;;;;;;;;;4994861;28;20944;-64
2023/05/11 04:19:27;;;;;;;27.70;17.00;;;;;;;;;;4994805;28;20418;-64
2023/05/11 04:21:55;;;;;;;8.60;7.23;;;;;;;;;;4994688;28;21099;-64
2023/05/11 04:24:21;;;;;;;4.27;4.07;;;;;;;;;;4994592;28;20508;-64
2023/05/11 04:26:54;;;;;;;11.50;5.63;;;;;;;;;;4994683;28;20476;-64
2023/05/11 04:29:20;;;;;;;8.33;5.70;;;;;;;;;;4993186;28;20417;-64
2023/05/11 04:31:46;;;;;;;2.00;1.93;;;;;;;;;;4994496;28;20422;-64
2023/05/11 04:34:12;;;;;;;2.43;2.17;;;;;;;;;;4994010;28;20894;-64
2023/05/11 04:36:38;;;;;;;2.50;1.83;;;;;;;;;;4994629;28;20449;-64
2023/05/11 04:39:04;;;;;;;5.03;2.60;;;;;;;;;;4994137;28;20930;-64
2023/05/11 04:41:30;;;;;;;1.80;1.70;;;;;;;;;;4994639;28;20492;-64
2023/05/11 04:43:56;;;;;;;3.07;2.13;;;;;;;;;;4994313;28;20521;-64
2023/05/11 04:46:22;;;;;;;3.00;2.80;;;;;;;;;;4994140;28;20414;-64
2023/05/11 04:48:51;;;;;;;4.47;2.50;;;;;;;;;;4994179;28;20418;-64
2023/05/11 04:51:17;;;;;;;3.43;1.67;;;;;;;;;;4994267;28;20414;-64
2023/05/11 04:53:43;;;;;;;1.90;1.80;;;;;;;;;;4986433;28;20434;-64
2023/05/11 04:56:11;;;;;;;2.90;1.70;;;;;;;;;;4974717;28;20525;-64
2023/05/11 04:58:37;;;;;;;2.20;2.10;;;;;;;;;;4973464;28;20418;-64
2023/05/11 05:01:05;;;;;;;3.43;2.40;;;;;;;;;;4974469;28;20878;-64
2023/05/11 05:03:31;;;;;;;2.03;1.80;;;;;;;;;;4974301;28;20521;-63
2023/05/11 05:05:57;;;;;;;2.63;2.07;;;;;;;;;;4974362;28;20418;-63
2023/05/11 05:08:23;;;;;;;2.30;2.10;;;;;;;;;;4974603;28;20410;-63
2023/05/11 05:10:54;;;;;;;2.50;2.33;;;;;;;;;;4974191;28;20956;-64
2023/05/11 05:13:20;;;;;;;2.87;2.57;;;;;;;;;;4974521;28;20528;-64
2023/05/11 05:15:46;;;;;;;2.70;2.50;;;;;;;;;;4974424;28;20448;-63
2023/05/11 05:18:12;;;;;;;1.60;1.50;;;;;;;;;;4974030;28;20419;-64
2023/05/11 05:20:38;;;;;;;2.63;2.20;;;;;;;;;;4974391;28;20418;-64
2023/05/11 05:23:07;;;;;;;2.50;2.13;;;;;;;;;;4974219;28;20980;-63
2023/05/11 05:25:32;;;;;;;5.80;1.93;;;;;;;;;;4973888;28;20505;-64
2023/05/11 05:27:58;;;;;;;6.40;2.00;;;;;;;;;;4973983;28;20513;-64
2023/05/11 05:30:32;;;;;;;14.20;2.40;;;;;;;;;;4974359;28;20414;-64
2023/05/11 05:32:58;;;;;;;2.90;1.60;;;;;;;;;;4974196;28;20410;-64
2023/05/11 05:35:24;;;;;;;2.20;2.10;;;;;;;;;;4973682;28;20467;-64
2023/05/11 05:37:52;;;;;;;6.23;2.07;;;;;;;;;;4973972;28;20456;-64
2023/05/11 05:40:18;;;;;;;4.13;2.20;;;;;;;;;;4973756;28;20438;-64
2023/05/11 05:42:45;;;;;;;2.40;2.20;;;;;;;;;;4973807;28;20560;-64
2023/05/11 05:45:11;;;;;;;2.77;2.60;;;;;;;;;;4972823;28;20482;-64
2023/05/11 05:47:38;;;;;;;2.87;2.20;;;;;;;;;;4973790;28;20973;-64
2023/05/11 05:50:04;;;;;;;2.20;2.10;;;;;;;;;;4974275;28;20406;-64
2023/05/11 05:52:30;;;;;;;3.80;2.30;;;;;;;;;;4973555;28;20412;-64
2023/05/11 05:54:56;;;;;;;4.00;2.87;;;;;;;;;;4973676;28;20461;-63
2023/05/11 05:57:23;;;;;;;2.30;2.20;;;;;;;;;;4973279;28;20443;-64
2023/05/11 05:59:49;;;;;;;3.27;1.87;;;;;;;;;;4973600;28;20423;-64
2023/05/11 06:02:15;;;;;;;3.83;2.07;;;;;;;;;;4973331;28;20575;-63
2023/05/11 06:04:43;;;;;;;4.23;2.20;;;;;;;;;;4973264;28;20902;-63
2023/05/11 06:07:12;;;;;;;2.60;2.40;;;;;;;;;;4973546;28;20442;-64
2023/05/11 06:09:38;;;;;;;5.87;2.27;;;;;;;;;;4973106;28;20418;-64
2023/05/11 06:12:08;;;;;;;2.37;2.27;;;;;;;;;;4973304;28;20438;-64
2023/05/11 06:14:34;;;;;;;2.23;2.13;;;;;;;;;;4973226;28;20570;-64
2023/05/11 06:17:02;;;;;;;4.10;1.80;;;;;;;;;;4973391;28;20854;-63
2023/05/11 06:19:28;;;;;;;3.43;2.53;;;;;;;;;;4973084;28;20441;-63
2023/05/11 06:21:54;;;;;;;3.33;2.63;;;;;;;;;;4973117;28;20461;-63
2023/05/11 06:24:20;;;;;;;2.97;2.60;;;;;;;;;;4973339;28;20869;-63
2023/05/11 06:26:46;;;;;;;2.47;2.23;;;;;;;;;;4973386;28;20387;-63
2023/05/11 06:29:15;;;;;;;4.63;2.40;;;;;;;;;;4973401;28;20409;-63
2023/05/11 06:31:41;;;;;;;2.87;2.53;;;;;;;;;;4973327;28;20413;-63
2023/05/11 06:34:08;;;;;;;3.03;2.63;;;;;;;;;;4973246;28;20462;-63
2023/05/11 06:36:34;;;;;;;2.43;2.07;;;;;;;;;;4973592;28;20446;-63
2023/05/11 06:39:00;;;;;;;2.40;1.90;;;;;;;;;;4973488;28;20785;-63
2023/05/11 06:41:26;;;;;;;2.80;2.60;;;;;;;;;;4973413;28;20442;-63
2023/05/11 06:43:52;;;;;;;2.60;2.30;;;;;;;;;;4973269;28;20417;-63
2023/05/11 06:46:20;;;;;;;4.03;2.50;;;;;;;;;;4973279;28;20774;-63
2023/05/11 06:48:46;;;;;;;2.80;2.60;;;;;;;;;;4973289;28;20780;-63
2023/05/11 06:51:15;;;;;;;2.60;2.40;;;;;;;;;;4973267;28;20486;-63
2023/05/11 06:53:41;;;;;;;2.83;2.57;;;;;;;;;;4971799;28;20482;-63
2023/05/11 06:56:07;;;;;;;5.60;2.50;;;;;;;;;;4974724;28;20920;-64
2023/05/11 06:58:33;;;;;;;4.73;2.50;;;;;;;;;;4976861;28;20464;-63
2023/05/11 07:00:59;;;;;;;18.80;11.30;;;;;;;;;;4976913;28;20434;-63
2023/05/11 07:03:25;;;;;;;2.97;2.63;;;;;;;;;;4976987;28;20461;-63
2023/05/11 07:05:51;;;;;;;15.33;13.73;;;;;;;;;;4976744;28;20465;-63
2023/05/11 07:08:20;;;;;;;3.63;2.30;;;;;;;;;;4975502;28;20431;-64
2023/05/11 07:10:45;;;;;;;2.90;2.20;;;;;;;;;;4976738;28;20430;-63
2023/05/11 07:13:11;;;;;;;2.73;2.53;;;;;;;;;;4976627;28;20447;-63
2023/05/11 07:15:38;;;;;;;2.30;2.20;;;;;;;;;;4976674;28;20438;-63
2023/05/11 07:18:04;;;;;;;3.97;2.30;;;;;;;;;;4976745;28;20429;-63
2023/05/11 07:20:35;;;;;;;2.10;2.00;;;;;;;;;;4978698;28;20936;-63
2023/05/11 07:23:02;;;;;;;2.20;2.03;;;;;;;;;;4979744;28;20498;-63
2023/05/11 07:25:28;;;;;;;3.43;2.00;;;;;;;;;;4978053;28;20445;-63
2023/05/11 07:27:56;;;;;;;1.87;1.70;;;;;;;;;;4980195;28;20410;-64
2023/05/11 07:30:23;;;;;;;4.63;1.80;;;;;;;;;;4982113;28;20415;-64
2023/05/11 07:32:49;;;;;;;1.70;1.70;;;;;;;;;;4992811;28;20437;-64
2023/05/11 07:35:15;;;;;;;1.87;1.70;;;;;;;;;;5000357;28;20411;-63
2023/05/11 07:37:41;;;;;;;2.07;1.63;;;;;;;;;;5000113;28;20407;-63
2023/05/11 07:40:07;;;;;;;5.03;2.50;;;;;;;;;;4991226;28;20423;-63
2023/05/11 07:42:33;;;;;;;2.13;2.03;;;;;;;;;;4976548;28;20841;-63
2023/05/11 07:44:59;;;;;;;2.57;2.20;;;;;;;;;;4976073;28;20411;-63
2023/05/11 07:47:28;;;;;;;2.30;2.03;;;;;;;;;;4976226;28;20498;-63
2023/05/11 07:49:54;;;;;;;2.07;1.97;;;;;;;;;;4976052;28;20502;-63
2023/05/11 07:52:20;;;;;;;7.90;7.10;;;;;;;;;;4976364;28;20501;-63
2023/05/11 07:54:46;;;;;;;4.10;3.80;;;;;;;;;;4976081;28;20431;-63
2023/05/11 07:57:14;;;;;;;6.10;5.60;;;;;;;;;;4976303;28;20511;-63
2023/05/11 07:59:40;;;;;;;22.33;17.20;;;;;;;;;;4976154;28;20443;-63
2023/05/11 08:02:07;;;;;;;2.10;2.00;;;;;;;;;;4975946;28;20467;-64
2023/05/11 08:04:33;;;;;;;1.67;1.67;;;;;;;;;;4976265;28;20431;-64
2023/05/11 08:06:59;;;;;;;1.90;1.90;;;;;;;;;;4975014;28;20911;-63
2023/05/11 08:09:25;;;;;;;2.60;1.63;;;;;;;;;;4975712;28;20455;-63
2023/05/11 08:11:52;;;;;;;2.00;1.90;;;;;;;;;;4975786;28;20797;-63
2023/05/11 08:14:21;;;;;;;2.30;2.20;;;;;;;;;;4975801;28;20837;-63
2023/05/11 08:16:49;;;;;;;2.03;1.83;;;;;;;;;;4975532;28;20426;-63
2023/05/11 08:19:15;;;;;;;4.43;2.33;;;;;;;;;;4976021;28;20867;-63
2023/05/11 08:21:41;;;;;;;3.73;2.00;;;;;;;;;;4975796;28;20448;-63
2023/05/11 08:24:07;;;;;;;1.70;1.63;;;;;;;;;;4975963;28;20810;-63
2023/05/11 08:26:33;;;;;;;2.23;2.13;;;;;;;;;;4975862;28;20840;-63
2023/05/11 08:28:59;;;;;;;1.97;1.87;;;;;;;;;;4975622;28;20453;-62
2023/05/11 08:31:25;;;;;;;5.70;1.93;;;;;;;;;;4975686;28;20413;-63
2023/05/11 08:33:51;;;;;;;5.60;2.37;;;;;;;;;;4975639;28;20524;-63
2023/05/11 08:36:17;;;;;;;2.63;2.40;;;;;;;;;;4975359;28;20408;-63
2023/05/11 08:38:43;;;;;;;2.40;2.20;;;;;;;;;;4975529;28;20492;-63
2023/05/11 08:41:11;;;;;;;4.10;2.33;;;;;;;;;;4975420;28;20417;-63
2023/05/11 08:43:38;;;;;;;2.13;1.97;;;;;;;;;;4975088;28;20632;-63
2023/05/11 08:46:07;;;;;;;2.67;2.03;;;;;;;;;;4974111;28;20924;-63
2023/05/11 08:48:33;;;;;;;2.23;2.23;;;;;;;;;;4975232;28;20808;-63
2023/05/11 08:51:05;;;;;;;1.83;1.83;;;;;;;;;;4975222;28;20892;-63
2023/05/11 08:53:31;;;;;;;2.10;2.00;;;;;;;;;;4974969;28;20781;-63
2023/05/11 08:55:59;;;;;;;11.93;2.50;;;;;;;;;;4975245;28;20420;-63
2023/05/11 08:58:26;;;;;;;60.07;42.70;;;;;;;;;;4975348;28;20837;-63
2023/05/11 09:00:55;;;;;;;11.97;6.90;;;;;;;;;;4975232;28;20413;-63
2023/05/11 09:03:21;;;;;;;5.93;3.10;;;;;;;;;;4974869;28;20475;-63
2023/05/11 09:05:47;;;;;;;2.53;2.40;;;;;;;;;;4975155;28;20485;-63
2023/05/11 09:08:14;;;;;;;1.90;1.80;;;;;;;;;;4974975;28;20417;-63
2023/05/11 09:10:43;;;;;;;4.13;1.60;;;;;;;;;;4975004;28;20916;-63
2023/05/11 09:13:09;;;;;;;2.43;2.23;;;;;;;;;;4974581;28;20921;-63
2023/05/11 09:15:35;;;;;;;1.50;1.50;;;;;;;;;;4974801;28;20414;-63
2023/05/11 09:18:02;;;;;;;2.17;2.07;;;;;;;;;;4974737;28;20424;-63
2023/05/11 09:20:31;;;;;;;1.90;1.90;;;;;;;;;;4974618;28;20936;-63
2023/05/11 09:22:57;;;;;;;20.17;15.93;;;;;;;;;;4973286;28;20556;-63
2023/05/11 09:25:24;;;;;;;3.47;2.77;;;;;;;;;;4974437;28;20424;-63
2023/05/11 09:27:52;;;;;;;3.40;3.20;;;;;;;;;;4974366;28;20909;-63
2023/05/11 09:30:19;;;;;;;2.40;2.33;;;;;;;;;;4974505;28;20507;-63
2023/05/11 09:33:14;;;;;;;1.70;1.70;;;;;;;;;;4974335;28;20417;-63
2023/05/11 09:35:42;;;;;;;1.70;1.60;;;;;;;;;;4962419;28;20433;-63
2023/05/11 09:38:10;;;;;;;1.60;1.50;;;;;;;;;;4974459;28;20565;-63
2023/05/11 09:40:37;;;;;;;5.17;2.10;;;;;;;;;;4973074;28;20993;-63
2023/05/11 09:43:15;;;;;;;2.70;1.73;;;;;;;;;;4973984;28;20866;-63
2023/05/11 09:45:42;;;;;;;2.10;2.00;;;;;;;;;;4974278;28;20414;-63
2023/05/11 09:48:13;;;;;;;1.90;1.90;;;;;;;;;;4974071;28;20417;-63
2023/05/11 09:50:39;;;;;;;1.87;1.77;;;;;;;;;;4974366;28;20804;-63
2023/05/11 09:53:05;;;;;;;2.07;2.07;;;;;;;;;;4974261;28;20423;-63
2023/05/11 09:55:31;;;;;;;2.00;1.90;;;;;;;;;;4972867;28;20454;-63
2023/05/11 09:57:58;;;;;;;2.20;2.10;;;;;;;;;;4972797;28;20435;-63
2023/05/11 10:00:24;;;;;;;6.27;1.87;;;;;;;;;;4974209;28;20481;-63
2023/05/11 10:03:01;;;;;;;1.90;1.70;;;;;;;;;;4973771;28;20480;-63
2023/05/11 10:05:30;;;;;;;1.73;1.63;;;;;;;;;;4973686;28;20900;-63
2023/05/11 10:07:58;;;;;;;2.37;1.70;;;;;;;;;;4974036;28;20410;-63
2023/05/11 10:10:24;;;;;;;1.90;1.80;;;;;;;;;;4974476;28;20441;-63
2023/05/11 10:12:50;;;;;;;1.67;1.67;;;;;;;;;;4973895;28;20435;-63
2023/05/11 10:15:20;;;;;;;1.80;1.70;;;;;;;;;;4973764;28;20480;-63
2023/05/11 10:17:48;;;;;;;2.00;1.87;;;;;;;;;;4973735;28;20510;-63
2023/05/11 10:20:15;;;;;;;2.20;1.93;;;;;;;;;;4973724;28;20524;-63
2023/05/11 10:22:41;;;;;;;1.77;1.63;;;;;;;;;;4973683;28;20568;-63
2023/05/11 10:25:08;;;;;;;1.83;1.73;;;;;;;;;;4973654;28;20438;-63
2023/05/11 10:27:34;;;;;;;2.23;2.03;;;;;;;;;;4973376;28;20418;-63
2023/05/11 10:30:03;;;;;;;3.30;2.10;;;;;;;;;;4974326;28;20459;-63
2023/05/11 10:32:29;;;;;;;1.93;1.83;;;;;;;;;;4980102;28;20438;-63
2023/05/11 10:34:55;;;;;;;1.80;1.70;;;;;;;;;;4980173;28;20445;-63
2023/05/11 10:37:23;;;;;;;2.07;1.97;;;;;;;;;;4980132;28;20485;-63
2023/05/11 10:39:49;;;;;;;1.60;1.60;;;;;;;;;;4979953;28;20426;-63
2023/05/11 10:42:15;;;;;;;1.57;1.57;;;;;;;;;;4980043;28;20834;-63
2023/05/11 10:44:47;;;;;;;2.93;2.00;;;;;;;;;;4979994;28;20469;-63
2023/05/11 10:47:40;;;;;;;1.33;1.23;;;;;;;;;;4979886;28;20816;-63
2023/05/11 10:50:27;;;;;;;2.07;1.97;;;;;;;;;;4975516;28;20426;-63
2023/05/11 10:53:10;;;;;;;2.50;2.30;;;;;;;;;;4979913;28;20501;-63
2023/05/11 10:55:55;;;;;;;1.83;1.73;;;;;;;;;;4979907;28;20477;-63
2023/05/11 10:58:32;;;;;;;1.67;1.57;;;;;;;;;;4979944;28;20445;-63
2023/05/11 11:00:58;;;;;;;2.47;2.33;;;;;;;;;;4980024;28;20458;-63
2023/05/11 11:03:24;;;;;;;3.27;3.00;;;;;;;;;;4979946;28;20473;-63
2023/05/11 11:05:50;;;;;;;5.30;3.20;;;;;;;;;;4979784;28;20444;-63
2023/05/11 11:08:16;;;;;;;2.90;2.80;;;;;;;;;;4980031;28;20867;-63
2023/05/11 11:10:44;;;;;;;3.50;3.13;;;;;;;;;;4978415;28;20441;-63
2023/05/11 11:13:11;;;;;;;2.50;1.30;;;;;;;;;;4979799;28;20456;-63
2023/05/11 11:15:52;;;;;;;3.70;1.47;;;;;;;;;;4979503;28;20474;-63
2023/05/11 11:18:20;;;;;;;1.23;1.23;;;;;;;;;;4979762;28;20426;-64
2023/05/11 11:20:47;;;;;;;1.90;1.80;;;;;;;;;;4979724;28;20549;-63
2023/05/11 11:23:32;;;;;;;2.17;2.07;;;;;;;;;;4978413;28;20470;-63
2023/05/11 11:25:59;;;;;;;1.23;1.23;;;;;;;;;;4979632;28;20434;-63
2023/05/11 11:28:25;;;;;;;3.03;1.30;;;;;;;;;;4979811;28;20818;-63
2023/05/11 11:31:10;;;;;;;1.53;1.53;;;;;;;;;;4978263;28;20418;-63
2023/05/11 11:33:36;;;;;;;1.50;1.50;;;;;;;;;;4979367;28;20425;-63
2023/05/11 11:36:02;;;;;;;1.40;1.30;;;;;;;;;;4979446;28;20442;-63
2023/05/11 11:38:28;;;;;;;1.63;1.53;;;;;;;;;;4979532;28;21023;-64
2023/05/11 11:40:55;;;;;;;4.90;4.60;;;;;;;;;;4979522;28;20450;-64
2023/05/11 11:43:21;;;;;;;5.70;5.30;;;;;;;;;;4976901;28;20471;-63
2023/05/11 11:45:51;;;;;;;1.80;1.80;;;;;;;;;;4976401;28;20444;-63
2023/05/11 11:48:21;;;;;;;1.13;1.03;;;;;;;;;;4976646;28;20418;-63
2023/05/11 11:50:48;;;;;;;2.17;1.20;;;;;;;;;;4976087;28;20423;-64
2023/05/11 11:53:33;;;;;;;1.73;1.30;;;;;;;;;;4976541;28;20482;-63
2023/05/11 11:55:59;;;;;;;1.33;1.23;;;;;;;;;;4976330;28;20445;-63
2023/05/11 11:58:40;;;;;;;1.50;1.50;;;;;;;;;;4976127;28;20416;-63
2023/05/11 12:01:16;;;;;;;0.97;0.97;;;;;;;;;;4976274;28;21001;-64
2023/05/11 12:03:43;;;;;;;1.03;1.00;;;;;;;;;;4975917;28;20990;-64
2023/05/11 12:06:09;;;;;;;1.13;1.03;;;;;;;;;;4976006;28;20445;-63
2023/05/11 12:08:36;;;;;;;1.57;1.47;;;;;;;;;;4975895;28;20423;-63
2023/05/11 12:11:02;;;;;;;1.03;1.03;;;;;;;;;;4976038;28;20415;-63
2023/05/11 12:13:29;;;;;;;0.87;0.87;;;;;;;;;;4975674;28;20468;-63
2023/05/11 12:16:31;;;;;;;2.10;1.30;;;;;;;;;;4976057;28;20937;-63
2023/05/11 12:18:58;;;;;;;1.20;1.10;;;;;;;;;;4945062;28;20996;-63
2023/05/11 12:21:28;;;;;;;0.80;0.80;;;;;;;;;;4975858;28;20953;-63
2023/05/11 12:24:00;;;;;;;1.13;1.13;;;;;;;;;;4975575;28;20477;-63
2023/05/11 12:26:27;;;;;;;2.43;2.43;;;;;;;;;;4975789;28;20474;-63
2023/05/11 12:29:05;;;;;;;3.43;3.33;;;;;;;;;;4975772;28;20411;-63
2023/05/11 12:31:47;;;;;;;2.70;2.60;;;;;;;;;;4975454;28;20438;-63
2023/05/11 12:34:17;;;;;;;1.43;1.43;;;;;;;;;;4975673;28;20493;-63
2023/05/11 12:36:47;;;;;;;3.90;1.50;;;;;;;;;;4975380;28;20438;-63
2023/05/11 12:39:17;;;;;;;4.50;1.30;;;;;;;;;;4975516;28;20411;-63
2023/05/11 12:41:43;;;;;;;1.70;1.60;;;;;;;;;;4975348;28;20410;-64
2023/05/11 12:44:09;;;;;;;1.70;1.67;;;;;;;;;;4975180;28;20425;-63
2023/05/11 12:46:36;;;;;;;1.90;1.80;;;;;;;;;;4975381;28;20438;-63
2023/05/11 12:49:04;;;;;;;2.83;2.23;;;;;;;;;;4974073;28;20456;-63
2023/05/11 12:51:46;;;;;;;2.40;2.30;;;;;;;;;;4975262;28;20456;-63
2023/05/11 12:54:23;;;;;;;3.90;2.20;;;;;;;;;;4974591;28;20418;-63
2023/05/11 12:56:49;;;;;;;4.60;2.30;;;;;;;;;;4975102;28;20437;-63
2023/05/11 12:59:26;;;;;;;6.83;2.30;;;;;;;;;;4975233;28;20413;-63
2023/05/11 13:01:52;;;;;;;4.53;1.90;;;;;;;;;;4974808;28;20444;-63
2023/05/11 13:04:27;;;;;;;2.00;2.00;;;;;;;;;;4975163;28;20949;-63
2023/05/11 13:06:53;;;;;;;1.90;1.90;;;;;;;;;;4974977;28;20850;-63
2023/05/11 13:09:23;;;;;;;2.40;2.20;;;;;;;;;;4974941;28;20420;-63
2023/05/11 13:11:50;;;;;;;2.80;2.73;;;;;;;;;;4974918;28;20538;-63
2023/05/11 13:14:16;;;;;;;3.90;2.10;;;;;;;;;;4974540;28;20440;-63
2023/05/11 13:16:52;;;;;;;2.80;2.60;;;;;;;;;;4973541;28;20507;-63
2023/05/11 13:19:27;;;;;;;2.87;2.70;;;;;;;;;;4974837;28;20413;-63
2023/05/11 13:21:56;;;;;;;2.47;2.37;;;;;;;;;;4974748;28;20436;-63
2023/05/11 13:24:22;;;;;;;2.90;2.80;;;;;;;;;;4974460;28;20416;-63
2023/05/11 13:26:50;;;;;;;3.03;2.70;;;;;;;;;;4974351;28;20805;-63
2023/05/11 13:29:17;;;;;;;3.20;3.00;;;;;;;;;;4974403;28;20497;-63
2023/05/11 13:31:46;;;;;;;3.57;3.27;;;;;;;;;;4974559;28;20468;-63
2023/05/11 13:34:12;;;;;;;3.30;2.90;;;;;;;;;;4974400;28;20410;-63
2023/05/11 13:36:39;;;;;;;7.27;3.20;;;;;;;;;;4974443;28;20563;-64
2023/05/11 13:39:05;;;;;;;3.73;3.40;;;;;;;;;;4974306;28;20447;-63
2023/05/11 13:41:31;;;;;;;3.00;2.80;;;;;;;;;;4974838;28;20407;-63
2023/05/11 13:43:57;;;;;;;3.27;3.27;;;;;;;;;;4974379;28;20522;-63
2023/05/11 13:46:23;;;;;;;5.90;3.10;;;;;;;;;;4974295;28;20432;-63
2023/05/11 13:48:49;;;;;;;2.80;2.70;;;;;;;;;;4973071;28;20427;-63
2023/05/11 13:51:15;;;;;;;2.90;2.80;;;;;;;;;;4974142;28;20437;-64
2023/05/11 13:53:44;;;;;;;3.97;3.57;;;;;;;;;;4972573;28;20480;-63
2023/05/11 13:56:12;;;;;;;3.50;3.20;;;;;;;;;;4973980;28;20467;-63
2023/05/11 13:58:38;;;;;;;2.87;2.77;;;;;;;;;;4974076;28;20429;-63
2023/05/11 14:01:04;;;;;;;3.47;3.27;;;;;;;;;;4973887;28;20437;-63
2023/05/11 14:03:32;;;;;;;9.60;3.53;;;;;;;;;;4974065;28;20465;-63
2023/05/11 14:05:58;;;;;;;3.10;3.00;;;;;;;;;;4973209;28;20424;-64
2023/05/11 14:08:26;;;;;;;4.07;3.77;;;;;;;;;;4973945;28;20957;-63
2023/05/11 14:10:52;;;;;;;4.43;4.03;;;;;;;;;;4973730;28;20497;-63
2023/05/11 14:13:18;;;;;;;4.40;3.57;;;;;;;;;;4973829;28;20790;-63
2023/05/11 14:15:46;;;;;;;3.13;2.93;;;;;;;;;;4972723;28;20482;-63
2023/05/11 14:18:15;;;;;;;9.10;3.63;;;;;;;;;;4973778;28;20483;-63
2023/05/11 14:20:41;;;;;;;3.20;3.10;;;;;;;;;;4974036;28;20425;-62
2023/05/11 14:23:07;;;;;;;4.57;3.10;;;;;;;;;;4972424;28;20479;-63
2023/05/11 14:25:34;;;;;;;3.70;2.77;;;;;;;;;;4973909;28;20393;-63
2023/05/11 14:28:00;;;;;;;3.20;3.00;;;;;;;;;;4973862;28;20423;-63
2023/05/11 14:30:26;;;;;;;3.13;2.93;;;;;;;;;;4973783;28;20416;-63
2023/05/11 14:32:53;;;;;;;3.77;3.60;;;;;;;;;;4973738;28;20422;-63
2023/05/11 14:35:20;;;;;;;4.20;3.77;;;;;;;;;;4972353;28;20429;-63
2023/05/11 14:37:46;;;;;;;3.33;3.23;;;;;;;;;;4974020;28;20472;-64
2023/05/11 14:40:12;;;;;;;3.70;3.40;;;;;;;;;;4973447;28;20776;-63
2023/05/11 14:42:38;;;;;;;3.03;2.93;;;;;;;;;;4973657;28;20960;-63
2023/05/11 14:45:05;;;;;;;2.70;2.60;;;;;;;;;;4973685;28;20926;-63
2023/05/11 14:47:31;;;;;;;3.73;3.53;;;;;;;;;;4973537;28;20472;-63
2023/05/11 14:49:57;;;;;;;4.13;4.03;;;;;;;;;;4973594;28;20422;-63